Time;durP1;ratioP1;P1;durP2;ratioP2;P2;SDS_P1;SDS_P2;PMS_P1;PMS_P2;Temp;Humidity;BMP_temperature;BMP_pressure;BME280_temperature;BME280_humidity;BME280_pressure;Samples;Min_cycle;Max_cycle;Signal;HPM_P1;HPM_P2
2023/11/04 00:00:02;;;;;;;6.95;2.00;;;;;;;4.02;100.00;96698.41;4994052;28;20014;-79
2023/11/04 00:02:27;;;;;;;3.88;1.85;;;;;;;4.10;100.00;96705.38;5002056;28;20040;-80
2023/11/04 00:04:55;;;;;;;8.60;1.90;;;;;;;3.89;100.00;96682.44;5008272;28;20018;-80
2023/11/04 00:07:20;;;;;;;6.07;2.33;;;;;;;3.98;100.00;96707.88;5006160;28;20021;-80
2023/11/04 00:09:46;;;;;;;4.50;1.88;;;;;;;3.98;100.00;96701.72;4989141;28;20049;-81
2023/11/04 00:12:12;;;;;;;4.85;2.53;;;;;;;3.92;100.00;96684.66;5003414;28;20097;-80
2023/11/04 00:14:37;;;;;;;5.82;2.25;;;;;;;4.02;100.00;96695.72;5007479;28;20021;-78
2023/11/04 00:17:03;;;;;;;5.68;2.25;;;;;;;4.02;100.00;96692.25;5001081;28;20026;-80
2023/11/04 00:19:29;;;;;;;7.70;2.10;;;;;;;4.06;100.00;96688.09;5009769;28;20290;-81
2023/11/04 00:21:55;;;;;;;4.90;2.30;;;;;;;3.91;100.00;96665.13;5010843;28;20109;-80
2023/11/04 00:24:20;;;;;;;4.18;2.13;;;;;;;3.95;100.00;96686.91;5012022;28;20033;-81
2023/11/04 00:26:46;;;;;;;9.10;2.00;;;;;;;4.10;100.00;96705.38;5012072;28;20251;-81
2023/11/04 00:29:11;;;;;;;5.95;2.03;;;;;;;4.05;100.00;96676.56;5012092;28;20026;-82
2023/11/04 00:31:36;;;;;;;3.47;1.70;;;;;;;4.35;100.00;96678.69;5009034;28;20036;-79
2023/11/04 00:34:02;;;;;;;3.55;2.25;;;;;;;4.41;100.00;96669.78;5007526;28;20061;-79
2023/11/04 00:36:28;;;;;;;4.10;1.50;;;;;;;4.76;100.00;96704.13;5026140;28;20079;-78
2023/11/04 00:38:53;;;;;;;3.78;1.45;;;;;;;4.51;100.00;96650.56;5008542;28;20018;-80
2023/11/04 00:41:22;;;;;;;6.30;1.67;;;;;;;4.85;100.00;96692.09;5026159;28;20323;-80
2023/11/04 00:43:47;;;;;;;4.90;1.73;;;;;;;4.84;100.00;96685.09;5008291;28;20219;-79
2023/11/04 00:46:13;;;;;;;4.63;2.13;;;;;;;4.95;100.00;96686.22;5011160;28;20022;-81
2023/11/04 00:48:39;;;;;;;5.85;2.38;;;;;;;4.94;100.00;96680.06;5026928;28;20455;-80
2023/11/04 00:51:04;;;;;;;7.55;2.83;;;;;;;5.06;100.00;96696.25;5008529;28;20094;-80
2023/11/04 00:53:30;;;;;;;5.43;2.10;;;;;;;5.01;100.00;96685.38;5010423;28;20030;-79
2023/11/04 00:55:55;;;;;;;5.07;2.33;;;;;;;5.13;100.00;96702.34;5012126;28;20056;-80
2023/11/04 00:58:20;;;;;;;4.95;2.03;;;;;;;5.28;100.00;96700.13;5009791;28;20020;-80
2023/11/04 01:00:46;;;;;;;5.07;2.22;;;;;;;5.34;100.00;96693.06;5011754;28;20319;-84
2023/11/04 01:03:11;;;;;;;3.10;1.90;;;;;;;5.34;100.00;96692.25;5010096;28;20196;-80
2023/11/04 01:05:37;;;;;;;6.30;1.70;;;;;;;5.22;100.00;96666.19;5008956;28;20017;-80
2023/11/04 01:08:03;;;;;;;4.55;1.90;;;;;;;5.39;100.00;96693.22;5028291;28;20029;-81
2023/11/04 01:10:28;;;;;;;6.32;2.10;;;;;;;5.43;100.00;96689.06;5012128;28;20030;-80
2023/11/04 01:12:54;;;;;;;6.63;2.65;;;;;;;5.47;100.00;96682.19;5010052;28;20298;-80
2023/11/04 01:15:19;;;;;;;10.73;3.55;;;;;;;5.46;100.00;96688.63;5008924;28;20330;-79
2023/11/04 01:17:44;;;;;;;8.35;2.78;;;;;;;5.42;100.00;96676.72;5025444;28;20033;-80
2023/11/04 01:20:10;;;;;;;3.05;1.63;;;;;;;5.44;100.00;96677.28;5008975;28;20043;-80
2023/11/04 01:22:36;;;;;;;4.68;1.58;;;;;;;5.43;100.00;96677.53;5008058;28;20057;-80
2023/11/04 01:25:02;;;;;;;4.65;1.35;;;;;;;5.35;100.00;96670.59;5025407;28;20302;-81
2023/11/04 01:27:28;;;;;;;5.97;1.20;;;;;;;5.16;100.00;96658.19;5003674;28;20025;-80
2023/11/04 01:29:53;;;;;;;4.53;1.67;;;;;;;5.32;100.00;96678.25;5001212;28;20022;-80
2023/11/04 01:32:18;;;;;;;5.10;2.35;;;;;;;5.39;100.00;96676.31;5008538;28;20145;-80
2023/11/04 01:34:44;;;;;;;10.88;4.78;;;;;;;5.42;100.00;96668.66;5011503;28;20052;-80
2023/11/04 01:37:09;;;;;;;5.80;2.80;;;;;;;5.35;100.00;96669.78;5007324;28;20079;-80
2023/11/04 01:39:35;;;;;;;4.22;2.13;;;;;;;5.38;100.00;96670.16;5016800;28;20312;-82
2023/11/04 01:42:07;;;;;;;6.00;1.30;;;;;;;5.49;100.00;96676.63;5022288;28;20050;-79
2023/11/04 01:44:32;;;;;;;5.00;1.02;;;;;;;5.56;100.00;96661.28;5008878;28;20396;-79
2023/11/04 01:46:59;;;;;;;1.80;0.90;;;;;;;5.60;100.00;96658.97;5000988;28;20025;-80
2023/11/04 01:49:25;;;;;;;3.50;1.17;;;;;;;5.64;100.00;96663.66;5008439;28;20037;-81
2023/11/04 01:51:52;;;;;;;2.08;0.93;;;;;;;5.66;100.00;96672.31;5000920;28;20025;-79
2023/11/04 01:54:18;;;;;;;3.00;0.90;;;;;;;5.66;100.00;96671.50;5010754;28;20048;-80
2023/11/04 01:56:44;;;;;;;2.13;1.02;;;;;;;5.60;100.00;96661.66;5012012;28;20025;-81
2023/11/04 01:59:09;;;;;;;6.38;1.10;;;;;;;5.71;100.00;96674.31;5032726;28;20350;-81
2023/11/04 02:01:35;;;;;;;4.70;1.00;;;;;;;5.65;100.00;96661.78;5014615;28;20085;-82
2023/11/04 02:04:02;;;;;;;3.30;1.05;;;;;;;5.66;100.00;96672.31;5015000;28;20009;-82
2023/11/04 02:06:28;;;;;;;2.42;1.00;;;;;;;5.62;100.00;96676.47;5009459;28;20028;-80
2023/11/04 02:08:55;;;;;;;4.28;0.95;;;;;;;5.48;100.00;96632.09;5014154;28;20022;-83
2023/11/04 02:11:21;;;;;;;2.08;0.82;;;;;;;5.51;100.00;96630.81;5019355;28;20018;-81
2023/11/04 02:13:46;;;;;;;5.20;1.05;;;;;;;5.60;100.00;96651.72;5019410;28;20026;-80
2023/11/04 02:16:11;;;;;;;2.90;1.35;;;;;;;5.60;100.00;96650.91;5033109;28;20037;-84
2023/11/04 02:18:37;;;;;;;3.03;1.25;;;;;;;5.65;100.00;96649.19;5030222;28;20046;-81
2023/11/04 02:21:02;;;;;;;2.25;1.08;;;;;;;5.66;100.00;96645.50;5004457;28;20271;-81
2023/11/04 02:23:28;;;;;;;2.78;0.95;;;;;;;5.72;100.00;96655.31;5015201;28;20033;-81
2023/11/04 02:25:53;;;;;;;1.83;1.00;;;;;;;5.52;100.00;96630.59;5012216;28;20042;-84
2023/11/04 02:28:19;;;;;;;1.33;1.00;;;;;;;5.59;100.00;96639.38;5009103;28;20327;-81
2023/11/04 02:30:44;;;;;;;3.08;1.00;;;;;;;5.70;100.00;96651.22;5006061;28;20021;-81
2023/11/04 02:33:09;;;;;;;3.05;0.93;;;;;;;5.58;100.00;96620.81;5012873;28;20361;-81
2023/11/04 02:35:35;;;;;;;2.65;1.15;;;;;;;5.65;100.00;96633.09;5013343;28;20061;-80
2023/11/04 02:38:01;;;;;;;3.78;1.20;;;;;;;5.67;100.00;96640.94;5008263;28;20022;-80
2023/11/04 02:40:27;;;;;;;5.57;1.00;;;;;;;5.71;100.00;96642.09;5013247;28;20017;-80
2023/11/04 02:42:52;;;;;;;2.28;0.93;;;;;;;5.71;100.00;96636.75;5011069;28;20060;-80
2023/11/04 02:45:18;;;;;;;1.92;1.10;;;;;;;5.52;100.00;96616.34;5011733;28;20029;-81
2023/11/04 02:47:43;;;;;;;2.33;0.90;;;;;;;5.47;100.00;96611.66;5005200;28;20030;-80
2023/11/04 02:50:09;;;;;;;2.28;1.00;;;;;;;5.51;100.00;96610.19;5009003;28;20029;-81
2023/11/04 02:52:34;;;;;;;2.53;1.00;;;;;;;5.55;100.00;96615.91;5012060;28;20087;-81
2023/11/04 02:55:00;;;;;;;2.30;0.80;;;;;;;5.76;100.00;96642.25;5012095;28;20026;-82
2023/11/04 02:57:25;;;;;;;2.55;1.30;;;;;;;5.72;100.00;96622.31;5012876;28;20029;-80
2023/11/04 02:59:51;;;;;;;1.90;0.98;;;;;;;5.76;100.00;96625.34;5010822;28;20022;-79
2023/11/04 03:02:16;;;;;;;3.65;0.95;;;;;;;5.61;100.00;96631.94;5006147;28;20200;-80
2023/11/04 03:04:42;;;;;;;4.00;0.98;;;;;;;5.55;100.00;96626.63;5010999;28;20022;-80
2023/11/04 03:07:07;;;;;;;2.50;1.10;;;;;;;5.42;100.00;96623.09;5029511;28;20026;-80
2023/11/04 03:09:32;;;;;;;3.42;0.88;;;;;;;5.24;100.00;96609.69;5006832;28;20025;-79
2023/11/04 03:11:58;;;;;;;1.80;1.02;;;;;;;5.36;100.00;96625.81;5004899;28;20018;-80
2023/11/04 03:14:25;;;;;;;1.63;0.98;;;;;;;5.33;100.00;96616.38;5012624;28;20076;-80
2023/11/04 03:16:53;;;;;;;3.85;1.00;;;;;;;5.46;100.00;96618.09;5009522;28;20041;-82
2023/11/04 03:19:19;;;;;;;1.60;0.95;;;;;;;5.59;100.00;96633.19;5031255;28;20017;-80
2023/11/04 03:21:44;;;;;;;2.20;0.90;;;;;;;5.35;100.00;96595.53;5029167;28;20037;-82
2023/11/04 03:24:10;;;;;;;5.95;1.10;;;;;;;5.38;100.00;96600.44;5011674;28;20022;-80
2023/11/04 03:26:35;;;;;;;2.13;1.10;;;;;;;5.43;100.00;96611.31;5009893;28;20094;-79
2023/11/04 03:29:01;;;;;;;3.35;0.95;;;;;;;5.32;100.00;96595.13;5027193;28;20081;-79
2023/11/04 03:31:26;;;;;;;2.25;0.82;;;;;;;5.22;100.00;96598.34;5007508;28;20060;-80
2023/11/04 03:33:51;;;;;;;2.95;0.65;;;;;;;5.30;100.00;96610.66;5012766;28;20419;-80
2023/11/04 03:36:17;;;;;;;2.78;0.75;;;;;;;5.23;100.00;96599.97;5012332;28;20022;-80
2023/11/04 03:38:42;;;;;;;1.40;0.80;;;;;;;5.27;100.00;96598.50;5013707;28;20358;-79
2023/11/04 03:41:07;;;;;;;0.88;0.60;;;;;;;5.22;100.00;96609.06;5005818;28;20047;-79
2023/11/04 03:43:33;;;;;;;4.75;0.75;;;;;;;5.06;100.00;96572.97;5005561;28;20022;-80
2023/11/04 03:45:58;;;;;;;1.23;0.60;;;;;;;5.34;100.00;96588.50;4997918;28;20029;-79
2023/11/04 03:48:26;;;;;;;2.03;0.47;;;;;;;5.49;100.00;96591.63;5019582;28;20260;-79
2023/11/04 03:50:51;;;;;;;1.88;0.70;;;;;;;5.68;100.00;96588.91;5024707;28;20093;-80
2023/11/04 03:53:17;;;;;;;0.40;0.40;;;;;;;5.86;100.00;96570.09;5013297;28;20033;-81
2023/11/04 03:55:42;;;;;;;3.13;0.63;;;;;;;6.02;100.00;96581.25;5016088;28;20025;-80
2023/11/04 03:58:08;;;;;;;1.27;0.47;;;;;;;6.16;100.00;96569.28;5014951;28;20052;-80
2023/11/04 04:00:33;;;;;;;1.92;0.70;;;;;;;6.30;100.00;96568.00;5012757;28;20143;-83
2023/11/04 04:02:59;;;;;;;0.75;0.55;;;;;;;6.32;100.00;96547.13;5011516;28;20108;-80
2023/11/04 04:05:24;;;;;;;2.80;0.52;;;;;;;6.34;100.00;96563.81;5014722;28;20279;-80
2023/11/04 04:07:49;;;;;;;1.70;0.60;;;;;;;6.33;100.00;96566.72;5013906;28;20018;-78
2023/11/04 04:10:16;;;;;;;1.05;0.60;;;;;;;6.39;100.00;96576.53;5010846;28;20033;-82
2023/11/04 04:12:41;;;;;;;2.88;0.60;;;;;;;6.27;100.00;96563.09;5025289;28;20029;-80
2023/11/04 04:15:07;;;;;;;1.38;0.40;;;;;;;6.20;100.00;96562.38;5012859;28;20017;-81
2023/11/04 04:17:32;;;;;;;2.45;0.60;;;;;;;5.95;100.00;96546.47;5016312;28;20017;-80
2023/11/04 04:19:58;;;;;;;1.75;0.82;;;;;;;5.86;100.00;96553.16;5006071;28;20091;-79
2023/11/04 04:22:23;;;;;;;2.20;0.70;;;;;;;5.68;100.00;96551.34;5015128;28;20126;-80
2023/11/04 04:24:49;;;;;;;1.20;0.60;;;;;;;5.44;100.00;96540.53;5016702;28;20037;-81
2023/11/04 04:27:15;;;;;;;1.15;0.50;;;;;;;5.38;100.00;96557.53;5025075;28;20026;-79
2023/11/04 04:29:40;;;;;;;2.50;0.60;;;;;;;5.09;100.00;96518.09;5029434;28;20056;-80
2023/11/04 04:32:06;;;;;;;0.85;0.60;;;;;;;5.16;100.00;96538.44;5010533;28;20026;-79
2023/11/04 04:34:31;;;;;;;5.38;0.75;;;;;;;5.07;100.00;96541.63;5013346;28;20025;-81
2023/11/04 04:36:58;;;;;;;1.48;0.60;;;;;;;5.00;100.00;96545.22;5015001;28;20029;-81
2023/11/04 04:39:24;;;;;;;2.20;0.75;;;;;;;5.08;100.00;96541.38;5015105;28;20032;-81
2023/11/04 04:41:49;;;;;;;2.85;0.60;;;;;;;5.16;100.00;96542.94;5016142;28;20029;-81
2023/11/04 04:44:14;;;;;;;0.50;0.40;;;;;;;5.09;100.00;96531.50;5008798;28;20034;-81
2023/11/04 04:46:40;;;;;;;1.92;0.65;;;;;;;5.10;100.00;96533.13;5021485;28;20374;-81
2023/11/04 04:49:06;;;;;;;1.35;0.70;;;;;;;5.30;100.00;96541.75;5016000;28;20022;-80
2023/11/04 04:51:31;;;;;;;0.88;0.50;;;;;;;5.26;100.00;96538.69;5008680;28;20017;-80
2023/11/04 04:53:57;;;;;;;0.60;0.50;;;;;;;5.27;100.00;96528.81;5026652;28;20018;-80
2023/11/04 04:56:23;;;;;;;1.00;0.60;;;;;;;5.21;100.00;96517.13;5009877;28;20072;-80
2023/11/04 04:58:48;;;;;;;2.13;0.88;;;;;;;5.16;100.00;96524.19;5020390;28;20346;-81
2023/11/04 05:01:21;;;;;;;1.15;0.45;;;;;;;5.22;100.00;96537.50;5010887;28;20026;-80
2023/11/04 05:03:46;;;;;;;1.42;0.40;;;;;;;5.14;100.00;96511.03;5002977;28;20018;-80
2023/11/04 05:06:12;;;;;;;5.40;0.93;;;;;;;5.26;100.00;96517.25;4994345;28;20022;-80
2023/11/04 05:08:38;;;;;;;2.63;1.17;;;;;;;5.17;100.00;96491.00;5007113;28;20022;-80
2023/11/04 05:11:03;;;;;;;2.63;1.40;;;;;;;5.26;100.00;96501.16;5007781;28;20320;-80
2023/11/04 05:13:29;;;;;;;3.47;1.00;;;;;;;5.30;100.00;96514.94;5005583;28;20104;-79
2023/11/04 05:15:55;;;;;;;2.55;1.20;;;;;;;5.24;100.00;96503.25;5007628;28;20104;-79
2023/11/04 05:18:20;;;;;;;2.13;1.10;;;;;;;5.08;100.00;96492.31;5007221;28;20017;-77
2023/11/04 05:20:46;;;;;;;0.80;0.60;;;;;;;4.94;100.00;96480.97;5006385;28;20334;-77
2023/11/04 05:23:12;;;;;;;0.90;0.43;;;;;;;5.05;100.00;96515.84;5003040;28;20314;-77
2023/11/04 05:25:40;;;;;;;0.88;0.55;;;;;;;4.96;100.00;96509.16;5003692;28;20109;-78
2023/11/04 05:28:06;;;;;;;2.47;0.80;;;;;;;4.77;100.00;96486.13;5005790;28;20060;-79
2023/11/04 05:30:31;;;;;;;1.00;0.47;;;;;;;4.84;100.00;96506.41;5023276;28;20272;-77
2023/11/04 05:32:58;;;;;;;4.00;0.60;;;;;;;4.80;100.00;96502.56;5005705;28;20387;-79
2023/11/04 05:35:23;;;;;;;2.33;0.70;;;;;;;4.60;100.00;96491.22;5014809;28;20053;-77
2023/11/04 05:37:49;;;;;;;2.00;0.60;;;;;;;4.59;100.00;96503.81;5017438;28;20017;-79
2023/11/04 05:40:14;;;;;;;0.93;0.60;;;;;;;4.52;100.00;96510.28;5007020;28;20026;-77
2023/11/04 05:42:40;;;;;;;2.90;0.82;;;;;;;4.44;100.00;96494.50;5024190;28;20021;-74
2023/11/04 05:45:05;;;;;;;1.13;0.70;;;;;;;4.48;100.00;96507.22;5021819;28;20093;-73
2023/11/04 05:47:33;;;;;;;1.35;0.80;;;;;;;4.48;100.00;96503.69;5014529;28;20092;-78
2023/11/04 05:49:59;;;;;;;1.90;0.85;;;;;;;4.37;100.00;96491.88;5006050;28;20037;-76
2023/11/04 05:52:25;;;;;;;1.67;0.77;;;;;;;4.33;100.00;96496.03;5016266;28;20027;-77
2023/11/04 05:54:50;;;;;;;1.75;0.90;;;;;;;4.23;100.00;96490.38;5020761;28;20037;-75
2023/11/04 05:57:16;;;;;;;3.08;1.00;;;;;;;4.14;100.00;96482.63;5014470;28;20090;-77
2023/11/04 05:59:44;;;;;;;1.77;1.00;;;;;;;4.24;100.00;96486.66;5020713;28;20022;-77
2023/11/04 06:02:10;;;;;;;2.03;0.75;;;;;;;4.16;100.00;96477.03;5022604;28;20343;-78
2023/11/04 06:04:36;;;;;;;2.83;1.00;;;;;;;4.09;100.00;96462.91;5023727;28;20056;-76
2023/11/04 06:07:02;;;;;;;2.55;0.90;;;;;;;4.25;100.00;96473.06;5006551;28;20029;-76
2023/11/04 06:09:27;;;;;;;2.25;0.90;;;;;;;4.13;100.00;96464.09;5006527;28;20022;-76
2023/11/04 06:11:53;;;;;;;1.45;0.98;;;;;;;4.05;100.00;96462.53;5007808;28;20125;-76
2023/11/04 06:14:19;;;;;;;2.90;0.98;;;;;;;4.15;100.00;96468.19;5008678;28;20529;-76
2023/11/04 06:16:44;;;;;;;1.10;0.90;;;;;;;4.22;100.00;96478.00;5021219;28;20029;-77
2023/11/04 06:19:09;;;;;;;4.93;1.60;;;;;;;4.10;100.00;96462.69;5004097;28;20026;-77
2023/11/04 06:21:35;;;;;;;2.55;1.30;;;;;;;4.31;100.00;96468.66;5003687;28;20053;-76
2023/11/04 06:24:01;;;;;;;4.80;1.25;;;;;;;4.46;100.00;96455.75;5023608;28;20080;-76
2023/11/04 06:26:26;;;;;;;1.75;1.02;;;;;;;4.56;100.00;96465.97;5007138;28;20307;-76
2023/11/04 06:28:51;;;;;;;2.25;1.08;;;;;;;4.51;100.00;96439.84;5023011;28;20323;-77
2023/11/04 06:31:19;;;;;;;3.03;1.00;;;;;;;4.71;100.00;96449.50;5004577;28;20336;-77
2023/11/04 06:33:45;;;;;;;2.58;0.70;;;;;;;4.98;100.00;96439.28;5000618;28;20200;-77
2023/11/04 06:36:11;;;;;;;0.75;0.50;;;;;;;5.14;100.00;96445.88;5005642;28;20064;-77
2023/11/04 06:38:37;;;;;;;1.83;0.70;;;;;;;5.44;100.00;96448.53;5005504;28;20021;-78
2023/11/04 06:41:04;;;;;;;1.55;0.90;;;;;;;5.53;100.00;96425.72;5005298;28;20036;-78
2023/11/04 06:43:30;;;;;;;1.67;0.93;;;;;;;5.72;100.00;96423.78;5005113;28;20060;-77
2023/11/04 06:45:55;;;;;;;2.08;1.25;;;;;;;5.79;100.00;96403.03;5023797;28;20029;-75
2023/11/04 06:48:21;;;;;;;3.47;0.90;;;;;;;5.91;100.00;96395.78;5024224;28;20028;-76
2023/11/04 06:50:46;;;;;;;1.40;0.60;;;;;;;6.02;100.00;96386.13;5008681;28;20032;-76
2023/11/04 06:53:12;;;;;;;1.00;0.90;;;;;;;6.81;100.00;96399.06;5005478;28;20030;-76
2023/11/04 06:55:37;;;;;;;0.93;0.55;;;;;;;8.16;100.00;96379.59;5022264;28;20033;-76
2023/11/04 06:58:02;;;;;;;1.27;0.70;;;;;;;8.15;100.00;96380.63;5003863;28;20028;-76
2023/11/04 07:00:28;;;;;;;2.30;1.25;;;;;;;7.36;100.00;96373.47;5020263;28;20095;-76
2023/11/04 07:02:53;;;;;;;1.90;1.10;;;;;;;6.99;100.00;96363.13;5005210;28;20026;-76
2023/11/04 07:05:18;;;;;;;0.75;0.45;;;;;;;6.84;100.00;96347.56;5022772;28;20077;-75
2023/11/04 07:07:43;;;;;;;0.95;0.60;;;;;;;7.29;100.00;96386.28;5022578;28;20089;-75
2023/11/04 07:10:09;;;;;;;0.80;0.50;;;;;;;7.35;100.00;96361.09;5022038;28;20026;-76
2023/11/04 07:12:35;;;;;;;0.70;0.60;;;;;;;7.24;100.00;96377.03;4999171;28;20394;-75
2023/11/04 07:15:01;;;;;;;1.73;0.65;;;;;;;7.02;100.00;96374.25;5005115;28;20018;-75
2023/11/04 07:17:27;;;;;;;0.95;0.50;;;;;;;7.02;100.00;96368.03;4985404;28;20022;-80
2023/11/04 07:19:52;;;;;;;1.35;0.77;;;;;;;6.77;100.00;96354.94;4990725;28;20053;-75
2023/11/04 07:22:18;;;;;;;1.27;0.60;;;;;;;6.68;100.00;96367.94;5003350;28;20101;-75
2023/11/04 07:24:43;;;;;;;1.73;0.70;;;;;;;6.56;100.00;96357.22;5008497;28;20018;-75
2023/11/04 07:27:08;;;;;;;3.55;0.80;;;;;;;6.68;100.00;96373.31;5023480;28;20026;-75
2023/11/04 07:29:34;;;;;;;2.95;1.23;;;;;;;6.86;100.00;96366.09;5008908;28;20025;-75
2023/11/04 07:31:59;;;;;;;2.75;0.82;;;;;;;6.93;100.00;96354.16;5005487;28;20026;-76
2023/11/04 07:34:30;;;;;;;1.73;0.82;;;;;;;6.96;100.00;96359.06;5007521;28;20028;-76
2023/11/04 07:36:55;;;;;;;0.65;0.40;;;;;;;7.39;100.00;96332.66;5004264;28;20406;-75
2023/11/04 07:39:21;;;;;;;1.98;0.60;;;;;;;10.12;100.00;96332.78;5009012;28;20025;-75
2023/11/04 07:41:48;;;;;;;1.60;0.60;;;;;;;11.42;100.00;96318.38;5009896;28;20037;-73
2023/11/04 07:44:13;;;;;;;0.75;0.52;;;;;;;13.32;100.00;96311.34;5033536;28;20029;-79
2023/11/04 07:46:40;;;;;;;1.42;0.40;;;;;;;14.07;100.00;96302.06;5019390;28;20101;-78
2023/11/04 07:49:05;;;;;;;1.75;0.40;;;;;;;14.08;100.00;96308.28;5031476;28;20025;-76
2023/11/04 07:51:31;;;;;;;0.50;0.40;;;;;;;13.96;100.00;96292.34;5010046;28;20063;-78
2023/11/04 07:53:56;;;;;;;0.40;0.30;;;;;;;13.31;100.00;96287.22;5009571;28;20026;-75
2023/11/04 07:56:22;;;;;;;1.23;0.50;;;;;;;12.92;100.00;96291.50;5007163;28;20026;-77
2023/11/04 07:58:47;;;;;;;1.65;0.47;;;;;;;11.70;100.00;96321.63;5025620;28;20323;-75
2023/11/04 08:01:19;;;;;;;0.57;0.50;;;;;;;11.63;100.00;96320.03;5025726;28;20076;-77
2023/11/04 08:03:45;;;;;;;5.28;0.60;;;;;;;12.42;100.00;96301.50;5004660;28;20018;-77
2023/11/04 08:06:11;;;;;;;1.75;0.60;;;;;;;12.66;100.00;96284.56;5008857;28;20318;-77
2023/11/04 08:08:36;;;;;;;1.67;0.88;;;;;;;14.36;100.00;96282.19;5025460;28;20053;-75
2023/11/04 08:11:03;;;;;;;1.75;0.82;;;;;;;15.20;92.87;96281.66;5006365;28;20018;-76
2023/11/04 08:13:28;;;;;;;4.13;1.08;;;;;;;16.71;83.83;96278.47;5008174;28;20095;-76
2023/11/04 08:15:53;;;;;;;0.80;0.40;;;;;;;15.72;81.70;96272.41;5003140;28;20022;-73
2023/11/04 08:18:19;;;;;;;3.83;0.60;;;;;;;16.59;80.94;96268.06;5006862;28;20025;-74
2023/11/04 08:20:45;;;;;;;1.48;0.55;;;;;;;17.12;75.62;96263.97;5024566;28;20030;-72
2023/11/04 08:23:10;;;;;;;1.02;0.50;;;;;;;16.79;75.34;96253.22;5024909;28;20029;-73
2023/11/04 08:25:36;;;;;;;1.45;0.60;;;;;;;18.10;71.17;96271.47;5024558;28;20026;-72
2023/11/04 08:28:01;;;;;;;8.15;1.33;;;;;;;18.65;67.79;96259.25;5024317;28;20052;-73
2023/11/04 08:30:27;;;;;;;1.83;0.70;;;;;;;18.73;63.87;96265.88;5007800;28;20048;-73
2023/11/04 08:32:52;;;;;;;3.40;0.80;;;;;;;19.07;63.69;96264.38;5021283;28;20044;-74
2023/11/04 08:35:17;;;;;;;1.90;0.68;;;;;;;19.33;61.85;96251.50;5004512;28;20283;-73
2023/11/04 08:37:43;;;;;;;0.88;0.35;;;;;;;18.39;62.39;96256.44;5024370;28;20025;-72
2023/11/04 08:40:08;;;;;;;1.08;0.70;;;;;;;18.22;64.13;96256.38;5022528;28;20247;-72
2023/11/04 08:42:34;;;;;;;1.50;0.65;;;;;;;19.48;60.92;96240.03;5023979;28;20030;-75
2023/11/04 08:44:59;;;;;;;1.00;0.50;;;;;;;20.86;57.64;96239.16;5020883;28;20052;-71
2023/11/04 08:47:24;;;;;;;0.95;0.40;;;;;;;20.69;55.69;96224.38;5017879;28;20049;-71
2023/11/04 08:49:49;;;;;;;0.50;0.30;;;;;;;20.99;54.98;96213.38;5017140;28;20306;-74
2023/11/04 08:52:15;;;;;;;1.55;0.80;;;;;;;20.06;55.16;96206.88;5017564;28;20128;-75
2023/11/04 08:54:41;;;;;;;2.05;0.30;;;;;;;18.29;58.78;96218.41;5023288;28;20026;-76
2023/11/04 08:57:07;;;;;;;1.08;0.47;;;;;;;15.33;67.17;96215.53;4992370;28;20022;-77
2023/11/04 08:59:33;;;;;;;1.52;0.43;;;;;;;14.86;71.91;96212.69;5014886;28;20081;-76
2023/11/04 09:01:59;;;;;;;1.52;0.35;;;;;;;14.01;77.25;96203.41;5006797;28;20362;-76
2023/11/04 09:04:24;;;;;;;4.65;0.50;;;;;;;13.34;80.94;96189.69;5024980;28;20026;-77
2023/11/04 09:06:50;;;;;;;1.45;0.35;;;;;;;13.23;87.48;96199.00;5007661;28;20101;-76
2023/11/04 09:09:15;;;;;;;4.25;0.73;;;;;;;13.94;90.07;96213.03;5023682;28;20038;-77
2023/11/04 09:11:41;;;;;;;3.00;0.40;;;;;;;15.16;81.51;96196.19;5007593;28;20075;-72
2023/11/04 09:14:07;;;;;;;1.13;0.30;;;;;;;16.22;75.82;96203.59;5023722;28;20346;-74
2023/11/04 09:16:32;;;;;;;0.50;0.20;;;;;;;16.04;74.37;96193.59;5006241;28;20407;-73
2023/11/04 09:18:58;;;;;;;2.58;0.40;;;;;;;15.20;76.82;96178.16;4993646;28;20056;-72
2023/11/04 09:21:24;;;;;;;1.13;0.45;;;;;;;15.95;76.51;96182.56;5024212;28;20022;-71
2023/11/04 09:23:50;;;;;;;0.40;0.40;;;;;;;15.55;77.06;96191.16;5005271;28;20048;-74
2023/11/04 09:26:15;;;;;;;1.48;0.40;;;;;;;15.23;77.12;96186.53;5003722;28;20045;-71
2023/11/04 09:28:41;;;;;;;0.28;0.17;;;;;;;15.34;77.41;96179.00;5005321;28;20363;-71
2023/11/04 09:31:07;;;;;;;4.53;0.40;;;;;;;16.64;73.34;96182.53;5003423;28;20029;-78
2023/11/04 09:33:34;;;;;;;2.05;0.30;;;;;;;17.68;67.67;96186.09;5007597;28;20026;-74
2023/11/04 09:35:59;;;;;;;1.15;0.30;;;;;;;18.47;63.47;96167.25;5023483;28;20053;-73
2023/11/04 09:38:26;;;;;;;0.82;0.30;;;;;;;18.81;61.56;96152.81;5003710;28;20040;-75
2023/11/04 09:40:51;;;;;;;1.13;0.32;;;;;;;19.74;59.46;96145.97;5003276;28;20021;-74
2023/11/04 09:43:17;;;;;;;0.63;0.40;;;;;;;19.61;58.27;96141.47;5022979;28;20366;-74
2023/11/04 09:45:44;;;;;;;3.65;0.85;;;;;;;19.32;58.46;96134.75;5003382;28;20045;-74
2023/11/04 09:48:09;;;;;;;0.77;0.35;;;;;;;18.90;58.58;96145.41;5023096;28;20028;-73
2023/11/04 09:50:35;;;;;;;2.13;0.80;;;;;;;18.62;59.45;96128.44;5022304;28;20200;-75
2023/11/04 09:53:14;;;;;;;1.52;0.70;;;;;;;18.91;59.47;96135.25;5020437;28;20865;-74
2023/11/04 09:55:40;;;;;;;2.72;0.63;;;;;;;19.17;58.65;96121.53;5023371;28;20070;-74
2023/11/04 09:58:05;;;;;;;3.28;0.50;;;;;;;20.75;55.44;96096.66;5018758;28;20069;-75
2023/11/04 10:00:32;;;;;;;2.40;0.28;;;;;;;21.32;53.82;96097.13;5016028;28;20029;-75
2023/11/04 10:02:58;;;;;;;2.65;0.57;;;;;;;20.42;54.03;96087.50;5005578;28;20026;-75
2023/11/04 10:05:25;;;;;;;1.33;0.50;;;;;;;18.72;57.12;96106.22;5016001;28;20100;-76
2023/11/04 10:07:51;;;;;;;1.17;0.52;;;;;;;18.65;58.47;96091.41;5002715;28;20101;-76
2023/11/04 10:10:16;;;;;;;1.30;0.50;;;;;;;17.57;60.43;96078.09;5005521;28;20032;-76
2023/11/04 10:12:42;;;;;;;1.52;0.47;;;;;;;18.17;60.43;96085.72;5000353;28;20032;-75
2023/11/04 10:15:08;;;;;;;0.95;0.40;;;;;;;17.74;60.24;96061.75;5016142;28;20026;-75
2023/11/04 10:17:34;;;;;;;0.60;0.40;;;;;;;17.02;63.00;96064.78;5017014;28;20219;-75
2023/11/04 10:20:00;;;;;;;0.57;0.32;;;;;;;16.80;63.89;96050.03;5018702;28;20300;-76
2023/11/04 10:22:25;;;;;;;2.20;0.70;;;;;;;17.49;63.46;96046.06;5000069;28;20145;-76
2023/11/04 10:24:51;;;;;;;1.02;0.30;;;;;;;16.94;64.16;96027.31;5018527;28;20056;-77
2023/11/04 10:27:16;;;;;;;0.40;0.30;;;;;;;16.82;65.11;96022.41;5012679;28;20034;-74
2023/11/04 10:29:42;;;;;;;1.30;0.47;;;;;;;17.42;64.38;96032.03;5013876;28;20041;-74
2023/11/04 10:32:11;;;;;;;2.80;0.63;;;;;;;16.51;65.31;96025.88;5022376;28;20032;-73
2023/11/04 10:34:41;;;;;;;0.73;0.40;;;;;;;14.82;70.67;96033.94;4999047;28;20231;-72
2023/11/04 10:37:10;;;;;;;1.17;0.50;;;;;;;14.25;76.57;96032.09;5003625;28;20056;-72
2023/11/04 10:39:37;;;;;;;1.75;0.50;;;;;;;13.47;87.18;96016.31;4994028;28;20025;-73
2023/11/04 10:42:11;;;;;;;0.70;0.40;;;;;;;13.14;100.00;96032.38;5022017;28;20028;-72
2023/11/04 10:44:39;;;;;;;0.95;0.50;;;;;;;12.77;100.00;96020.25;5022280;28;20319;-73
2023/11/04 10:47:04;;;;;;;2.05;0.57;;;;;;;12.47;100.00;96013.19;5022132;28;20045;-73
2023/11/04 10:49:36;;;;;;;2.17;0.50;;;;;;;12.49;100.00;96011.81;5022947;28;20058;-72
2023/11/04 10:52:10;;;;;;;1.60;0.50;;;;;;;12.74;100.00;95996.41;5023679;28;20072;-72
2023/11/04 10:54:44;;;;;;;0.75;0.40;;;;;;;13.01;100.00;95985.00;5005953;28;20025;-73
2023/11/04 10:57:36;;;;;;;1.30;0.40;;;;;;;12.91;100.00;95955.25;5008659;28;20033;-73
2023/11/04 11:00:13;;;;;;;2.22;0.40;;;;;;;12.44;100.00;95954.94;5005273;28;20033;-72
2023/11/04 11:02:39;;;;;;;1.83;0.60;;;;;;;12.27;100.00;95968.09;5007752;28;20028;-72
2023/11/04 11:05:06;;;;;;;3.85;0.60;;;;;;;12.19;100.00;95974.13;5022785;28;20029;-72
2023/11/04 11:07:33;;;;;;;0.75;0.55;;;;;;;12.25;100.00;95949.38;5004431;28;20354;-73
2023/11/04 11:09:59;;;;;;;3.70;0.40;;;;;;;12.29;100.00;95930.66;5021322;28;20030;-72
2023/11/04 11:12:26;;;;;;;1.38;0.60;;;;;;;12.83;100.00;95948.56;5022314;28;20022;-73
2023/11/04 11:14:53;;;;;;;1.42;0.70;;;;;;;12.94;100.00;95949.25;5004127;28;20025;-72
2023/11/04 11:17:29;;;;;;;1.85;0.80;;;;;;;12.92;100.00;95943.34;5005816;28;20057;-73
2023/11/04 11:19:54;;;;;;;1.70;0.60;;;;;;;12.86;100.00;95939.88;5003567;28;20021;-73
2023/11/04 11:22:25;;;;;;;5.80;0.60;;;;;;;12.73;100.00;95954.09;5017898;28;20026;-73
2023/11/04 11:24:53;;;;;;;2.70;0.70;;;;;;;12.67;100.00;95950.63;4985288;28;20030;-72